Laganborg — PHQB — position and weather

sailwx.info

Track history (hours):
 
Tides and Currents Weather Stations Pressure Air Temp Water Temp Dewpoint Dewpoint Depression Visibility Wind Speed Wind Dir Waves Ship Positions

Laganborg

Last reported at 2018-Jan-20 16:28 UTC. Time now 2018-Jan-20 19:20 UTC.
Position N 36°49' W 002°28'.

Length 123 m; draft 4.2 m.

Type: Cargo ship. MMSI: 244297000.

Date/timePositionNaut miles runAvg speedWind from/ knotsBaromVisibWave heightAir tempDewpointWater temp
2018-Jan-20 16:28N 36°49' W 002°28'1 0.4
2018-Jan-20 14:56N 36°49' W 002°29'0 0.0
2018-Jan-20 14:29N 36°49' W 002°29'0 0.0
2018-Jan-20 13:59N 36°49' W 002°29'0 0.0
2018-Jan-20 13:29N 36°49' W 002°29'0 0.0
2018-Jan-20 12:59N 36°49' W 002°29'0 0.0
2018-Jan-20 12:29N 36°49' W 002°29'0 0.0
2018-Jan-20 11:59N 36°49' W 002°29'0 0.0
2018-Jan-20 11:29N 36°49' W 002°29'1 1.2
2018-Jan-20 11:00N 36°48' W 002°28'610.8
2018-Jan-20 10:28N 36°43' W 002°26'712.8
2018-Jan-20 09:54N 36°36' W 002°23'512.4
2018-Jan-20 09:29N 36°31' W 002°20'511.7
2018-Jan-20 09:00N 36°27' W 002°16'510.1
2018-Jan-20 08:30N 36°27' W 002°10'612.0
2018-Jan-20 08:00N 36°31' W 002°04'612.3
2018-Jan-20 07:30N 36°35' W 001°59'612.5
2018-Jan-20 07:00N 36°39' W 001°53'712.7
2018-Jan-20 06:26N 36°44' W 001°46'4712.7
2018-Jan-20 02:46N 37°15' W 001°02'512.4
2018-Jan-20 02:24N 37°18' W 000°58'512.5
2018-Jan-20 02:00N 37°21' W 000°53'612.6
2018-Jan-20 01:30N 37°25' W 000°47'612.2
2018-Jan-20 00:59N 37°30' W 000°41'612.1
2018-Jan-20 00:30N 37°33' W 000°36'612.0
2018-Jan-20 00:00N 37°38' W 000°31'612.0
2018-Jan-19 23:30N 37°43' W 000°27'612.1
2018-Jan-19 23:00N 37°48' W 000°23'611.9
2018-Jan-19 22:29N 37°53' W 000°19'1011.7
2018-Jan-19 21:35N 38°02' W 000°11'111.4
2018-Jan-19 21:30N 38°03' W 000°10'611.3
2018-Jan-19 21:00N 38°08' W 000°06'162 8.6
2018-Jan-19 02:13N 39°52' E 002°33'210.7
2018-Jan-19 02:00N 39°53' E 002°36'510.7
2018-Jan-19 01:30N 39°56' E 002°42'610.5
2018-Jan-19 00:58N 39°59' E 002°48'910.4
2018-Jan-19 00:05N 40°04' E 002°57'  
2018-Jan-11 23:35N 37°43' W 000°23'111.6
2018-Jan-11 23:30N 37°42' W 000°24'611.6
2018-Jan-11 23:00N 37°37' W 000°28'611.6
2018-Jan-11 22:29N 37°33' W 000°32'1011.6
2018-Jan-11 21:36N 37°26' W 000°42'111.5
2018-Jan-11 21:30N 37°25' W 000°43'611.4
2018-Jan-11 20:58N 37°21' W 000°49'511.2
2018-Jan-11 20:30N 37°18' W 000°54'19111.1
2018-Jan-11 03:14N 36°05' W 004°34'311.9
2018-Jan-11 03:00N 36°04' W 004°37'713.0
2018-Jan-11 02:28N 36°03' W 004°46'611.9
2018-Jan-11 01:59N 36°02' W 004°53'612.5
2018-Jan-11 01:30N 36°01' W 005°00'713.8
2018-Jan-11 01:00N 36°00' W 005°08'713.6
2018-Jan-11 00:30N 35°59' W 005°17'713.9
2018-Jan-11 00:00N 35°59' W 005°25'714.0
2018-Jan-10 23:30N 35°56' W 005°33'713.8
2018-Jan-10 23:00N 35°55' W 005°42'813.5
2018-Jan-10 22:25N 35°55' W 005°52'512.6
2018-Jan-10 22:00N 35°54' W 005°58'912.2
2018-Jan-10 21:17N 35°54' W 006°09'  
Track history (hours):
 
Tides and Currents Weather Stations Pressure Air Temp Water Temp Dewpoint Dewpoint Depression Visibility Wind Speed Wind Dir Waves Ship Positions

Laganborg

Last reported at 2018-Jan-20 16:28 UTC. Time now 2018-Jan-20 19:20 UTC.
Position N 36°49' W 002°28'.

Length 123 m; draft 4.2 m.

Type: Cargo ship. MMSI: 244297000.

Date/timePositionNaut miles runAvg speedWind from/ knotsBaromVisibWave heightAir tempDewpointWater temp
2018-Jan-20 16:28N 36°49' W 002°28'1 0.4
2018-Jan-20 14:56N 36°49' W 002°29'0 0.0
2018-Jan-20 14:29N 36°49' W 002°29'0 0.0
2018-Jan-20 13:59N 36°49' W 002°29'0 0.0
2018-Jan-20 13:29N 36°49' W 002°29'0 0.0
2018-Jan-20 12:59N 36°49' W 002°29'0 0.0
2018-Jan-20 12:29N 36°49' W 002°29'0 0.0
2018-Jan-20 11:59N 36°49' W 002°29'0 0.0
2018-Jan-20 11:29N 36°49' W 002°29'1 1.2
2018-Jan-20 11:00N 36°48' W 002°28'610.8
2018-Jan-20 10:28N 36°43' W 002°26'712.8
2018-Jan-20 09:54N 36°36' W 002°23'512.4
2018-Jan-20 09:29N 36°31' W 002°20'511.7
2018-Jan-20 09:00N 36°27' W 002°16'510.1
2018-Jan-20 08:30N 36°27' W 002°10'612.0
2018-Jan-20 08:00N 36°31' W 002°04'612.3
2018-Jan-20 07:30N 36°35' W 001°59'612.5
2018-Jan-20 07:00N 36°39' W 001°53'712.7
2018-Jan-20 06:26N 36°44' W 001°46'4712.7
2018-Jan-20 02:46N 37°15' W 001°02'512.4
2018-Jan-20 02:24N 37°18' W 000°58'512.5
2018-Jan-20 02:00N 37°21' W 000°53'612.6
2018-Jan-20 01:30N 37°25' W 000°47'612.2
2018-Jan-20 00:59N 37°30' W 000°41'612.1
2018-Jan-20 00:30N 37°33' W 000°36'612.0
2018-Jan-20 00:00N 37°38' W 000°31'612.0
2018-Jan-19 23:30N 37°43' W 000°27'612.1
2018-Jan-19 23:00N 37°48' W 000°23'611.9
2018-Jan-19 22:29N 37°53' W 000°19'1011.7
2018-Jan-19 21:35N 38°02' W 000°11'111.4
2018-Jan-19 21:30N 38°03' W 000°10'611.3
2018-Jan-19 21:00N 38°08' W 000°06'162 8.6
2018-Jan-19 02:13N 39°52' E 002°33'210.7
2018-Jan-19 02:00N 39°53' E 002°36'510.7
2018-Jan-19 01:30N 39°56' E 002°42'610.5
2018-Jan-19 00:58N 39°59' E 002°48'910.4
2018-Jan-19 00:05N 40°04' E 002°57'  
2018-Jan-11 23:35N 37°43' W 000°23'111.6
2018-Jan-11 23:30N 37°42' W 000°24'611.6
2018-Jan-11 23:00N 37°37' W 000°28'611.6
2018-Jan-11 22:29N 37°33' W 000°32'1011.6
2018-Jan-11 21:36N 37°26' W 000°42'111.5
2018-Jan-11 21:30N 37°25' W 000°43'611.4
2018-Jan-11 20:58N 37°21' W 000°49'511.2
2018-Jan-11 20:30N 37°18' W 000°54'19111.1
2018-Jan-11 03:14N 36°05' W 004°34'311.9
2018-Jan-11 03:00N 36°04' W 004°37'713.0
2018-Jan-11 02:28N 36°03' W 004°46'611.9
2018-Jan-11 01:59N 36°02' W 004°53'612.5
2018-Jan-11 01:30N 36°01' W 005°00'713.8
2018-Jan-11 01:00N 36°00' W 005°08'713.6
2018-Jan-11 00:30N 35°59' W 005°17'713.9
2018-Jan-11 00:00N 35°59' W 005°25'714.0
2018-Jan-10 23:30N 35°56' W 005°33'713.8
2018-Jan-10 23:00N 35°55' W 005°42'813.5
2018-Jan-10 22:25N 35°55' W 005°52'512.6
2018-Jan-10 22:00N 35°54' W 005°58'912.2
2018-Jan-10 21:17N 35°54' W 006°09'  

Dump ship's entire track history